This is the latest recevied weather packets stored in our database for station/object K7MT-WX. If no packets are shown the sender has not sent any weather packets the latest 10 day(s).
| Time | Temp. | Humidity | Pressure | Rain* | Wind** | Luminosity | Snow |
|---|---|---|---|---|---|---|---|
| 1777891690 | 7.78° C | 53% | 1014.9 hPa | 0 mm | - | - | - |
| 1777890790 | 7.78° C | 51% | 1014.7 hPa | 0 mm | - | - | - |
| 1777889890 | 8.33° C | 49% | 1014.6 hPa | 0 mm | - | - | - |
| 1777888990 | 8.33° C | 49% | 1014.3 hPa | 0 mm | - | - | - |
| 1777888090 | 8.89° C | 48% | 1014.1 hPa | 0 mm | - | - | - |
| 1777887190 | 9.44° C | 47% | 1013.9 hPa | 0 mm | - | - | - |
| 1777886290 | 10° C | 46% | 1013.5 hPa | 0 mm | - | - | - |
| 1777885390 | 10.56° C | 46% | 1013.3 hPa | 0 mm | - | - | - |
| 1777884490 | 11.67° C | 46% | 1012.9 hPa | 0 mm | - | - | - |
| 1777883590 | 11.67° C | 45% | 1012.1 hPa | 0 mm | - | - | - |
| 1777882690 | 11.11° C | 49% | 1011.3 hPa | 0 mm | - | - | - |
| 1777881790 | 6.67° C | 60% | 1011 hPa | 0 mm | - | - | - |
| 1777880890 | 7.78° C | 57% | 1009.9 hPa | 0 mm | - | - | - |
| 1777879990 | 8.33° C | 53% | 1009.9 hPa | 0 mm | - | - | - |
| 1777879090 | 8.89° C | 51% | 1009.2 hPa | 0 mm | - | - | - |
| 1777878190 | 9.44° C | 48% | 1009.2 hPa | 0 mm | - | - | - |
| 1777877290 | 10° C | 46% | 1009.2 hPa | 0 mm | - | - | - |
| 1777876390 | 10° C | 49% | 1009.2 hPa | 0 mm | - | - | - |
| 1777875490 | 10° C | 47% | 1009.2 hPa | 0 mm | - | - | - |
| 1777874590 | 10.56° C | 43% | 1009.2 hPa | 0 mm | - | - | - |
| 1777873690 | 10.56° C | 42% | 1009.2 hPa | 0 mm | - | - | - |
| 1777872790 | 11.11° C | 40% | 1009.3 hPa | 0 mm | - | - | - |
| 1777871890 | 11.11° C | 39% | 1009.4 hPa | 0 mm | - | - | - |
| 1777870990 | 11.67° C | 36% | 1009.2 hPa | 0 mm | - | - | - |
| 1777870090 | 11.11° C | 40% | 1009.2 hPa | 0 mm | - | - | - |
* Rain latest hour (hover to see other rain measurements)
** Current wind speed in m/s (hover to see current wind gust speed)